Terminal Aerodrome Forecast
Issued by NWS Quad Cities IA IL

Home | Current Version | Previous Version | Text Only | Print | Product List | Glossary On
Versions: 1 2 3 4 5 6 7 8 9 10 11 12 13 14 15 16 17 18 19 20 21 22 23
000
FTUS43 KDVN 191300 AAA
TAFMLI
TAF AMD
KMLI 191328Z 1913/2012 24006KT P6SM SCT200
      TEMPO 1914/1915 6SM BR BKN010
     FM191600 28011KT P6SM FEW035 SCT250
     FM200100 30003KT P6SM SKC
     FM200900 VRB02KT 5SM BR SKC=

USA.gov is the U.S. government's official web portal to all federal, state and local government web resources and services.